createdAt,value
2024-02-24T00:03:28.807Z,0.60
2024-02-24T00:08:32.569Z,0.50
2024-02-24T00:13:37.944Z,0.30
2024-02-24T00:18:41.902Z,0.52
2024-02-24T00:23:45.721Z,0.65
2024-02-24T00:28:51.900Z,0.70
2024-02-24T00:33:55.734Z,0.80
2024-02-24T00:38:59.506Z,0.70
2024-02-24T00:44:05.139Z,0.95
2024-02-24T00:49:09.048Z,1.00
2024-02-24T00:54:12.790Z,0.85
2024-02-24T00:59:18.073Z,0.75
2024-02-24T01:04:25.731Z,1.10
2024-02-24T01:09:30.055Z,0.75
2024-02-24T01:14:35.851Z,0.80
2024-02-24T01:19:40.340Z,0.60
2024-02-24T01:24:45.400Z,0.75
2024-02-24T01:29:50.831Z,0.75
2024-02-24T01:34:54.800Z,0.70
2024-02-24T01:39:58.591Z,0.93
2024-02-24T01:45:04.266Z,0.52
2024-02-24T01:50:09.464Z,0.50
2024-02-24T01:55:14.046Z,0.60
2024-02-24T02:00:19.631Z,0.50
2024-02-24T02:05:23.505Z,0.40
2024-02-24T02:10:27.383Z,0.68
2024-02-24T02:15:32.787Z,0.52
2024-02-24T02:20:36.586Z,0.60
2024-02-24T02:25:41.757Z,0.65
2024-02-24T02:30:45.530Z,0.43
2024-02-24T02:35:49.344Z,0.40
2024-02-24T02:40:54.514Z,0.50
2024-02-24T02:45:58.371Z,0.50
2024-02-24T02:51:02.138Z,0.38
2024-02-24T02:56:08.122Z,0.52
2024-02-24T03:01:12.012Z,0.30
2024-02-24T03:06:16.354Z,0.40
2024-02-24T03:11:21.808Z,0.50
2024-02-24T03:16:25.614Z,0.70
2024-02-24T03:21:32.290Z,0.55
2024-02-24T03:26:37.430Z,0.60
2024-02-24T03:31:41.949Z,0.65
2024-02-24T03:36:46.068Z,0.60
2024-02-24T03:41:51.290Z,0.68
2024-02-24T03:46:55.265Z,0.57
2024-02-24T03:51:59.040Z,0.70
2024-02-24T03:57:04.248Z,0.68
2024-02-24T04:02:08.282Z,1.00
2024-02-24T04:07:12.135Z,1.00
2024-02-24T04:12:17.543Z,0.90
2024-02-24T04:17:21.573Z,1.10
2024-02-24T04:22:25.383Z,0.98
2024-02-24T04:27:30.639Z,1.00
2024-02-24T04:32:35.981Z,1.45
2024-02-24T04:37:40.025Z,1.00
2024-02-24T04:42:45.410Z,1.00
2024-02-24T04:47:49.469Z,1.10
2024-02-24T04:52:53.824Z,1.10
2024-02-24T04:57:58.996Z,1.15
2024-02-24T05:03:02.814Z,1.10
2024-02-24T05:08:07.269Z,1.30
2024-02-24T05:13:12.555Z,1.30
2024-02-24T05:18:16.712Z,1.40
2024-02-24T05:23:20.732Z,1.38
2024-02-24T05:28:26.015Z,1.30
2024-02-24T05:33:29.961Z,1.33
2024-02-24T05:38:36.507Z,1.27
2024-02-24T05:43:41.926Z,1.43
2024-02-24T05:48:46.757Z,1.30
2024-02-24T05:53:51.232Z,1.30
2024-02-24T05:58:56.584Z,1.40
2024-02-24T06:04:00.443Z,1.50
2024-02-24T06:09:04.302Z,1.38
2024-02-24T06:14:09.763Z,1.50
2024-02-24T06:19:13.746Z,1.35
2024-02-24T06:24:17.650Z,1.35
2024-02-24T06:29:22.966Z,1.40
2024-02-24T06:34:26.983Z,1.58
2024-02-24T06:39:30.816Z,1.38
2024-02-24T06:44:36.030Z,1.50
2024-02-24T06:49:39.949Z,1.50
2024-02-24T06:54:43.741Z,1.90
2024-02-24T06:59:49.241Z,1.40
2024-02-24T07:04:53.767Z,1.27
2024-02-24T07:09:57.470Z,1.27
2024-02-24T07:15:02.948Z,1.30
2024-02-24T07:20:07.848Z,1.30
2024-02-24T07:25:11.802Z,1.70
2024-02-24T07:30:17.080Z,1.20
2024-02-24T07:35:21.209Z,1.38
2024-02-24T07:40:25.175Z,1.30
2024-02-24T07:45:30.326Z,1.40
2024-02-24T07:50:34.257Z,1.80
2024-02-24T07:55:38.034Z,2.25
2024-02-24T08:00:46.595Z,1.70
2024-02-24T08:05:53.706Z,1.85
2024-02-24T08:10:59.847Z,1.95
2024-02-24T08:16:07.216Z,2.25
2024-02-24T08:21:11.193Z,1.50
2024-02-24T08:26:15.067Z,1.75
2024-02-24T08:31:20.186Z,1.83
2024-02-24T08:36:24.420Z,2.10
2024-02-24T08:41:28.800Z,2.28
2024-02-24T08:46:34.287Z,2.30
2024-02-24T08:51:38.213Z,2.08
2024-02-24T08:56:42.646Z,2.13
2024-02-24T09:01:48.082Z,3.00
2024-02-24T09:06:52.096Z,3.45
2024-02-24T09:11:55.960Z,3.03
2024-02-24T09:17:01.485Z,3.55
2024-02-24T09:22:05.603Z,2.95
2024-02-24T09:27:09.488Z,3.05
2024-02-24T09:32:18.825Z,2.67
2024-02-24T09:37:22.988Z,2.80
2024-02-24T09:42:28.448Z,2.05
2024-02-24T09:47:34.632Z,2.55
2024-02-24T09:52:39.959Z,2.33
2024-02-24T09:57:45.201Z,2.67
2024-02-24T10:02:50.972Z,1.88
2024-02-24T10:07:56.721Z,1.80
2024-02-24T10:13:03.769Z,1.70
2024-02-24T10:18:09.400Z,1.70
2024-02-24T10:23:13.959Z,1.20
2024-02-24T10:28:18.948Z,1.33
2024-02-24T10:33:26.463Z,1.25
2024-02-24T10:38:37.061Z,1.08
2024-02-24T10:43:47.214Z,0.80
2024-02-24T10:48:52.577Z,0.80
2024-02-24T10:53:59.097Z,0.38
2024-02-24T10:59:09.598Z,0.60
2024-02-24T11:04:17.885Z,0.70
2024-02-24T11:09:28.358Z,0.80
2024-02-24T11:14:32.448Z,0.90
2024-02-24T11:19:45.440Z,0.55
2024-02-24T11:25:02.235Z,0.50
2024-02-24T11:30:42.518Z,0.68
2024-02-24T11:35:48.546Z,0.60
2024-02-24T11:40:52.894Z,0.63
2024-02-24T11:45:56.666Z,1.00
2024-02-24T11:51:01.988Z,0.93
2024-02-24T11:56:06.637Z,0.60
2024-02-24T12:01:11.934Z,1.17
2024-02-24T12:06:18.071Z,0.82
2024-02-24T12:11:22.594Z,0.57
2024-02-24T12:16:26.446Z,0.93
2024-02-24T12:21:31.707Z,0.68
2024-02-24T12:26:35.504Z,0.70
2024-02-24T12:31:39.589Z,0.50
2024-02-24T12:36:44.747Z,0.73
2024-02-24T12:41:49.136Z,0.70
2024-02-24T12:46:53.170Z,0.75
2024-02-24T12:51:59.111Z,0.70
2024-02-24T12:57:03.391Z,0.77
2024-02-24T13:02:07.581Z,0.50
2024-02-24T13:07:12.841Z,1.00
2024-02-24T13:12:17.636Z,0.88
2024-02-24T13:17:22.858Z,0.70
2024-02-24T13:22:28.095Z,0.70
2024-02-24T13:27:32.197Z,0.60
2024-02-24T13:32:36.227Z,0.52
2024-02-24T13:37:41.596Z,0.40
2024-02-24T13:42:45.567Z,0.40
2024-02-24T13:47:53.314Z,0.65
2024-02-24T13:52:59.630Z,0.45
2024-02-24T13:58:05.991Z,0.52
2024-02-24T14:03:10.702Z,0.50
2024-02-24T14:08:16.209Z,0.95
2024-02-24T14:13:20.074Z,0.73
2024-02-24T14:18:24.157Z,0.90
2024-02-24T14:23:29.502Z,0.95
2024-02-24T14:28:33.446Z,0.85
2024-02-24T14:33:37.399Z,0.70
2024-02-24T14:38:43.087Z,1.13
2024-02-24T14:43:47.080Z,0.80
2024-02-24T14:48:52.344Z,0.80
2024-02-24T14:53:57.896Z,0.90
2024-02-24T14:59:01.842Z,0.70
2024-02-24T15:04:06.314Z,0.77
2024-02-24T15:09:11.925Z,0.70
2024-02-24T15:14:17.598Z,0.68
2024-02-24T15:19:22.265Z,0.43
2024-02-24T15:24:27.497Z,0.88
2024-02-24T15:29:31.500Z,0.60
2024-02-24T15:34:35.589Z,0.68
2024-02-24T15:39:41.077Z,0.45
2024-02-24T15:44:45.319Z,0.63
2024-02-24T15:49:49.220Z,0.70
2024-02-24T15:54:54.537Z,0.85
2024-02-24T15:59:58.423Z,0.60
2024-02-24T16:05:02.302Z,0.90
2024-02-24T16:10:09.071Z,0.75
2024-02-24T16:15:13.961Z,1.00
2024-02-24T16:20:18.914Z,0.60
2024-02-24T16:25:24.435Z,0.90
2024-02-24T16:30:30.231Z,0.80
2024-02-24T16:35:34.629Z,0.88
2024-02-24T16:40:40.225Z,0.80
2024-02-24T16:45:44.115Z,0.90
2024-02-24T16:50:48.228Z,0.93
2024-02-24T16:55:53.456Z,0.60
2024-02-24T17:00:57.328Z,0.70
2024-02-24T17:06:01.543Z,0.80
2024-02-24T17:11:06.894Z,0.82
2024-02-24T17:16:10.705Z,1.02
2024-02-24T17:21:14.803Z,0.65
2024-02-24T17:26:20.653Z,0.85
2024-02-24T17:31:24.625Z,0.90
2024-02-24T17:36:28.565Z,0.65
2024-02-24T17:41:33.708Z,1.02
2024-02-24T17:46:39.262Z,0.63
2024-02-24T17:51:43.232Z,1.20
2024-02-24T17:56:48.398Z,1.10
2024-02-24T18:01:52.307Z,1.15
2024-02-24T18:06:56.315Z,0.90
2024-02-24T18:12:01.867Z,1.30
2024-02-24T18:17:06.039Z,1.02
2024-02-24T18:22:10.077Z,0.82
2024-02-24T18:27:15.397Z,0.85
2024-02-24T18:32:19.234Z,0.65
2024-02-24T18:37:23.118Z,0.70
2024-02-24T18:42:28.279Z,0.82
2024-02-24T18:47:32.437Z,1.67
2024-02-24T18:52:36.310Z,1.40
2024-02-24T18:57:42.712Z,1.30
2024-02-24T19:02:46.619Z,1.10
2024-02-24T19:07:51.594Z,1.20
2024-02-24T19:12:57.008Z,1.33
2024-02-24T19:18:01.099Z,1.00
2024-02-24T19:23:05.727Z,1.30
2024-02-24T19:28:11.207Z,0.70
2024-02-24T19:33:15.275Z,0.95
2024-02-24T19:38:19.291Z,0.93
2024-02-24T19:43:24.488Z,0.70
2024-02-24T19:48:28.489Z,0.88
2024-02-24T19:53:32.543Z,0.80
2024-02-24T19:58:45.033Z,0.98
2024-02-24T20:03:55.390Z,1.48
2024-02-24T20:08:59.548Z,1.00
2024-02-24T20:14:04.735Z,1.10
2024-02-24T20:19:08.792Z,0.85
2024-02-24T20:24:12.703Z,0.90
2024-02-24T20:29:18.506Z,0.80
2024-02-24T20:34:22.516Z,0.82
2024-02-24T20:39:26.604Z,0.80
2024-02-24T20:44:32.040Z,0.60
2024-02-24T20:49:38.803Z,0.85
2024-02-24T20:54:44.758Z,0.70
2024-02-24T20:59:51.732Z,1.08
2024-02-24T21:09:59.153Z,0.70
2024-02-24T21:15:04.828Z,0.90
2024-02-24T21:20:09.575Z,0.47
2024-02-24T21:25:14.344Z,0.70
2024-02-24T21:30:19.903Z,0.55
2024-02-24T21:35:31.154Z,0.73
2024-02-24T21:40:35.075Z,0.45
2024-02-24T21:45:40.449Z,0.30
2024-02-24T21:50:44.833Z,0.55
2024-02-24T21:55:48.782Z,0.30
2024-02-24T22:00:55.751Z,0.40
2024-02-24T22:06:01.649Z,0.50
2024-02-24T22:11:06.507Z,0.68
2024-02-24T22:16:14.181Z,0.50
2024-02-24T22:21:19.224Z,0.40
2024-02-24T22:26:25.016Z,0.30
2024-02-24T22:31:30.672Z,0.50
2024-02-24T22:36:34.709Z,0.30
2024-02-24T22:41:38.563Z,0.32
2024-02-24T22:46:43.751Z,0.20
2024-02-24T22:51:47.877Z,0.35
2024-02-24T22:56:51.955Z,0.50
2024-02-24T23:01:57.200Z,0.47
2024-02-24T23:07:01.070Z,0.40
2024-02-24T23:12:05.341Z,0.68
2024-02-24T23:17:10.579Z,0.57
2024-02-24T23:22:14.732Z,0.60
2024-02-24T23:27:18.797Z,0.40
2024-02-24T23:32:24.053Z,0.55
2024-02-24T23:37:28.177Z,0.85
2024-02-24T23:42:32.339Z,0.52
2024-02-24T23:47:38.238Z,0.95
2024-02-24T23:52:43.223Z,0.80
2024-02-24T23:57:47.209Z,0.47
